Airfield :
LOGIN :

Register | Disclaimer

   EN    FR    IT 

 










Legend :    VFR   Marginal VFR   IFR   Intensive IFR   Very Intensive IFR
Visi :
Ceiling :
>= 8 km
>= 3000ft
5 to 8 km
1000 to 3000 ft
1500m to 5 km
500 to 1000 ft
800 to 1500m
200 to 500 ft
< 800m
< 200 ft
Symbols :   Thunderstorms  Fog  Heavy snow  Heavy precipitations  Wind > 20 kt
SIGMETs :     Misc.  Thunderstorms  Icing  Turbulence  Mountain Waves  Volcanic Ashes







- Airport Elevation : 302 ft
- Download approach charts


LFPM - Melun Villaroche

CURRENT METAR :
  • 222000Z AUTO 32008KT 8000 3800 +RA FEW019/// SCT030/// BKN041/// ///CB 16/14 Q1013

EXPIRED METARs :
  • 221930Z AUTO 22009KT 180V340 9999 VCTS FEW030/// SCT056/// BKN092/// ///CB 18/14 Q1012
  • 221900Z AUTO 21008KT 9999 ///CB 18/15 Q1011
  • 221830Z AUTO 21011KT 9999 FEW017/// BKN092/// ///CB 19/15 Q1011
  • 221800Z AUTO 20010KT 9999 SCT018/// ///CB 19/16 Q1011
  • 221730Z AUTO 21009KT 180V240 9999 SCT017/// BKN054/// ///CB 20/16 Q1011

Expired Forecast.
ATIS : +33 1 64 14 28 44
No reported NOTAMs for that airfield.
3 SIGMETs reported for the Paris FIR (LFFF) :
 
Embedded thunderstorms
LFFF SIGMET 5 VALID 221900/222100 LFPW
LFFF PARIS FIR/UIR EMBD TS OBS AT 1900Z WI N5045 E00300 - N5030 E00400 - N4815 E00245 - N4830 E00145 TOP FL330 MOV NE 25KT NC=
Embedded thunderstorms
LFFF SIGMET 4 VALID 221730/222000 LFPW
LFFF PARIS FIR/UIR EMBD TS OBS AT 1730Z WI N4800 E00330 - N4915 E00345 - N4915 E00430 - N4800 E00430 TOP FL380 MOV NE 35KT NC=
Embedded thunderstorms
LFFF SIGMET 3 VALID 221715/222000 LFPW
LFFF PARIS FIR/UIR EMBD TS OBS AT 1715Z WI N4815 E00530 - N4730 E00415 - N4630 E00445 - N4630 E00430 - N4715 E00345 - N4830 E00500 TOP FL400 MOV NE 20KT NC=



MET'MAP, your aeronautical weather chart ! - Copyright ORBIFLY December 2007 - Disclaimer

ORBIFLY MET'MAP TEAM :

Programming & Development : Alexandra Zaïnal
Concept & Development : Baudouin d'Aumeries
Co-Development & Prog : Marc-Olivier Méhu
Technical & hardware support : Manuel Goepfert

Contact : metmap@orbifly.com




SOURCES & CREDITS :

   NOAA